createdAt,value
2023-03-15T00:01:24.273Z,5.17
2023-03-15T00:03:52.381Z,5.63
2023-03-15T00:06:22.359Z,6.80
2023-03-15T00:08:52.142Z,9.83
2023-03-15T00:11:20.657Z,8.20
2023-03-15T00:13:49.144Z,7.60
2023-03-15T00:16:19.332Z,6.87
2023-03-15T00:18:47.763Z,5.37
2023-03-15T00:21:16.282Z,6.67
2023-03-15T00:23:45.993Z,5.90
2023-03-15T00:26:14.422Z,4.77
2023-03-15T00:28:42.866Z,5.70
2023-03-15T00:31:15.593Z,7.30
2023-03-15T00:33:46.103Z,7.80
2023-03-15T00:36:15.007Z,9.47
2023-03-15T00:38:45.773Z,4.93
2023-03-15T00:41:16.906Z,6.70
2023-03-15T00:43:45.324Z,9.10
2023-03-15T00:46:14.329Z,6.77
2023-03-15T00:48:43.732Z,4.97
2023-03-15T00:51:13.753Z,6.50
2023-03-15T00:53:43.846Z,8.87
2023-03-15T00:56:15.018Z,5.60
2023-03-15T00:58:43.278Z,9.77
2023-03-15T01:01:13.226Z,6.57
2023-03-15T01:03:41.963Z,7.50
2023-03-15T01:06:12.011Z,6.30
2023-03-15T01:08:40.190Z,8.37
2023-03-15T01:11:09.520Z,6.17
2023-03-15T01:13:39.573Z,7.57
2023-03-15T01:16:08.533Z,5.55
2023-03-15T01:18:37.842Z,6.67
2023-03-15T01:21:08.182Z,4.70
2023-03-15T01:23:36.674Z,7.17
2023-03-15T01:26:06.493Z,9.67
2023-03-15T01:28:34.843Z,7.30
2023-03-15T01:31:05.652Z,5.63
2023-03-15T01:33:35.117Z,7.10
2023-03-15T01:36:04.595Z,6.07
2023-03-15T01:38:33.897Z,5.60
2023-03-15T01:41:02.162Z,7.83
2023-03-15T01:43:31.791Z,6.00
2023-03-15T01:46:24.867Z,8.03
2023-03-15T01:49:01.496Z,5.50
2023-03-15T01:51:36.687Z,5.07
2023-03-15T01:54:08.652Z,6.43
2023-03-15T01:56:39.481Z,5.00
2023-03-15T01:59:13.393Z,3.90
2023-03-15T02:01:45.930Z,5.10
2023-03-15T02:04:24.988Z,3.47
2023-03-15T02:06:59.238Z,3.80
2023-03-15T02:09:38.076Z,4.07
2023-03-15T02:12:06.798Z,3.80
2023-03-15T02:14:35.550Z,5.00
2023-03-15T02:17:06.757Z,3.07
2023-03-15T02:19:45.691Z,3.07
2023-03-15T02:22:24.689Z,3.47
2023-03-15T02:24:59.765Z,3.20
2023-03-15T02:27:30.455Z,3.50
2023-03-15T02:29:58.582Z,4.70
2023-03-15T02:32:26.350Z,4.03
2023-03-15T02:34:54.286Z,6.27
2023-03-15T02:37:22.829Z,5.87
2023-03-15T02:39:53.920Z,6.37
2023-03-15T02:42:23.924Z,5.70
2023-03-15T02:44:54.682Z,10.00
2023-03-15T02:47:27.863Z,6.00
2023-03-15T02:49:56.148Z,7.50
2023-03-15T02:52:25.273Z,7.27
2023-03-15T02:54:54.310Z,6.33
2023-03-15T02:57:22.774Z,5.70
2023-03-15T02:59:54.972Z,6.37
2023-03-15T03:02:23.788Z,6.87
2023-03-15T03:04:52.946Z,5.50
2023-03-15T03:07:21.031Z,10.33
2023-03-15T03:10:01.577Z,5.30
2023-03-15T03:12:35.243Z,9.70
2023-03-15T03:15:05.184Z,6.57
2023-03-15T03:17:37.251Z,6.17
2023-03-15T03:20:09.945Z,7.53
2023-03-15T03:22:44.852Z,8.20
2023-03-15T03:25:14.188Z,6.63
2023-03-15T03:27:42.857Z,7.20
2023-03-15T03:30:16.344Z,8.43
2023-03-15T03:32:50.043Z,7.80
2023-03-15T03:35:18.107Z,10.83
2023-03-15T03:37:46.176Z,8.43
2023-03-15T03:40:19.266Z,8.97
2023-03-15T03:42:47.856Z,8.07
2023-03-15T03:45:20.255Z,9.03
2023-03-15T03:47:51.897Z,7.97
2023-03-15T03:50:20.069Z,7.43
2023-03-15T03:52:48.058Z,6.40
2023-03-15T03:55:25.097Z,9.83
2023-03-15T03:57:54.876Z,11.23
2023-03-15T04:00:55.112Z,8.00
2023-03-15T04:03:27.247Z,7.23
2023-03-15T04:06:05.625Z,10.20
2023-03-15T04:08:37.647Z,7.03
2023-03-15T04:11:06.597Z,8.80
2023-03-15T04:13:37.621Z,7.17
2023-03-15T04:16:09.666Z,9.57
2023-03-15T04:18:56.290Z,9.47
2023-03-15T04:21:24.248Z,8.77
2023-03-15T04:23:56.524Z,7.57
2023-03-15T04:26:45.164Z,8.93
2023-03-15T04:29:31.416Z,6.27
2023-03-15T04:32:18.559Z,6.73
2023-03-15T04:35:22.615Z,7.70
2023-03-15T04:38:05.118Z,6.70
2023-03-15T04:40:51.085Z,5.20
2023-03-15T04:43:38.861Z,5.73
2023-03-15T04:46:27.197Z,6.57
2023-03-15T04:49:06.981Z,5.13
2023-03-15T04:51:49.436Z,7.33
2023-03-15T04:54:26.742Z,9.07
2023-03-15T04:57:06.052Z,7.90
2023-03-15T04:59:52.713Z,9.37
2023-03-15T05:02:40.026Z,5.70
2023-03-15T05:05:15.951Z,7.77
2023-03-15T05:07:56.460Z,7.73
2023-03-15T05:10:44.141Z,6.07
2023-03-15T05:13:29.259Z,7.37
2023-03-15T05:16:23.313Z,11.20
2023-03-15T05:19:00.484Z,8.77
2023-03-15T05:21:48.768Z,12.97
2023-03-15T05:24:39.937Z,15.37
2023-03-15T05:27:15.282Z,19.50
2023-03-15T05:29:52.030Z,20.50
2023-03-15T05:32:39.791Z,19.07
2023-03-15T05:35:46.953Z,25.40
2023-03-15T05:38:55.149Z,29.20
2023-03-15T05:41:35.561Z,19.93
2023-03-15T05:44:26.354Z,16.60
2023-03-15T05:47:07.376Z,17.40
2023-03-15T05:50:07.015Z,20.03
2023-03-15T05:52:55.694Z,19.53
2023-03-15T05:55:35.986Z,18.20
2023-03-15T05:58:29.298Z,17.50
2023-03-15T06:01:06.244Z,19.70
2023-03-15T06:03:55.806Z,20.13
2023-03-15T06:06:28.113Z,18.70
2023-03-15T06:08:56.336Z,20.83
2023-03-15T06:11:25.735Z,22.13
2023-03-15T06:13:54.214Z,22.87
2023-03-15T06:16:40.805Z,26.87
2023-03-15T06:19:09.634Z,22.03
2023-03-15T06:21:37.536Z,23.83
2023-03-15T06:24:11.205Z,22.90
2023-03-15T06:26:41.260Z,20.23
2023-03-15T06:29:10.125Z,21.00
2023-03-15T06:31:38.356Z,16.43
2023-03-15T06:34:11.886Z,21.37
2023-03-15T06:36:39.883Z,21.03
2023-03-15T06:39:07.962Z,16.50
2023-03-15T06:41:35.720Z,16.97
2023-03-15T06:44:14.091Z,19.33
2023-03-15T06:46:43.286Z,18.40
2023-03-15T06:49:11.733Z,15.53
2023-03-15T06:51:39.805Z,16.33
2023-03-15T06:54:08.127Z,18.20
2023-03-15T06:56:37.447Z,19.40
2023-03-15T06:59:05.882Z,17.70
2023-03-15T07:01:35.648Z,14.03
2023-03-15T07:04:03.855Z,11.17
2023-03-15T07:06:32.266Z,8.43
2023-03-15T07:09:00.544Z,8.97
2023-03-15T07:11:28.543Z,10.40
2023-03-15T07:13:56.627Z,7.53
2023-03-15T07:16:24.984Z,6.90
2023-03-15T07:18:56.483Z,10.50
2023-03-15T07:21:24.703Z,11.73
2023-03-15T07:23:52.769Z,11.73
2023-03-15T07:26:20.737Z,7.60
2023-03-15T07:28:49.030Z,5.23
2023-03-15T07:31:17.683Z,5.90
2023-03-15T07:33:46.023Z,4.33
2023-03-15T07:36:15.567Z,6.33
2023-03-15T07:38:43.764Z,3.67
2023-03-15T07:41:11.860Z,2.67
2023-03-15T07:43:46.177Z,3.20
2023-03-15T07:46:18.839Z,1.70
2023-03-15T07:48:49.834Z,2.43
2023-03-15T07:51:20.179Z,3.00
2023-03-15T07:53:48.066Z,2.60
2023-03-15T07:56:16.271Z,3.27
2023-03-15T07:58:44.870Z,3.37
2023-03-15T08:01:13.531Z,4.70
2023-03-15T08:03:41.704Z,6.50
2023-03-15T08:06:10.035Z,6.83
2023-03-15T08:08:40.517Z,6.57
2023-03-15T08:11:09.259Z,6.87
2023-03-15T08:13:37.564Z,5.93
2023-03-15T08:16:06.072Z,9.93
2023-03-15T08:18:34.550Z,7.40
2023-03-15T08:21:02.595Z,9.18
2023-03-15T08:23:31.316Z,8.85
2023-03-15T08:26:01.374Z,9.18
2023-03-15T08:28:29.350Z,10.05
2023-03-15T08:30:57.456Z,10.93
2023-03-15T08:33:25.514Z,9.13
2023-03-15T08:35:54.377Z,9.57
2023-03-15T08:38:23.117Z,10.85
2023-03-15T08:40:51.139Z,0.00
2023-03-15T08:43:20.801Z,0.00
2023-03-15T08:46:00.279Z,0.00
2023-03-15T08:48:29.417Z,0.05
2023-03-15T08:50:58.405Z,0.20
2023-03-15T08:53:26.599Z,0.10
2023-03-15T08:55:54.490Z,0.10
2023-03-15T08:58:24.933Z,0.10
2023-03-15T09:00:53.276Z,0.10
2023-03-15T09:03:22.644Z,0.10
2023-03-15T09:05:51.290Z,0.00
2023-03-15T09:08:21.431Z,0.00
2023-03-15T09:10:49.540Z,0.00
2023-03-15T09:13:17.445Z,0.00
2023-03-15T09:15:46.763Z,0.00
2023-03-15T09:18:15.060Z,0.00
2023-03-15T09:20:43.523Z,0.00
2023-03-15T09:23:11.652Z,0.00
2023-03-15T09:25:40.114Z,0.00
2023-03-15T09:28:09.920Z,0.00
2023-03-15T09:30:39.249Z,0.10
2023-03-15T09:33:08.893Z,0.00
2023-03-15T09:35:36.862Z,0.00
2023-03-15T09:38:04.955Z,0.00
2023-03-15T09:40:34.787Z,0.00
2023-03-15T09:43:05.781Z,0.10
2023-03-15T09:45:45.273Z,0.17
2023-03-15T09:48:17.526Z,0.10
2023-03-15T09:50:47.093Z,0.10
2023-03-15T09:53:17.566Z,0.10
2023-03-15T09:55:46.088Z,0.40
2023-03-15T09:58:17.111Z,0.30
2023-03-15T10:00:46.608Z,0.40
2023-03-15T10:03:19.708Z,0.40
2023-03-15T10:05:49.937Z,0.30
2023-03-15T10:08:20.495Z,0.40
2023-03-15T10:10:53.042Z,0.30
2023-03-15T10:13:30.989Z,0.30
2023-03-15T10:16:03.903Z,0.20
2023-03-15T10:18:43.985Z,0.13
2023-03-15T10:21:13.742Z,0.10
2023-03-15T10:23:47.741Z,0.10
2023-03-15T10:26:18.178Z,0.10
2023-03-15T10:28:46.177Z,0.00
2023-03-15T10:31:25.623Z,0.10
2023-03-15T10:34:02.579Z,0.10
2023-03-15T10:36:31.004Z,0.00
2023-03-15T10:38:59.435Z,0.10
2023-03-15T10:41:31.936Z,0.10
2023-03-15T10:44:02.476Z,0.10
2023-03-15T10:46:31.114Z,0.10
2023-03-15T10:49:00.818Z,0.22
2023-03-15T10:51:31.577Z,0.30
2023-03-15T10:54:01.415Z,0.20
2023-03-15T10:56:35.948Z,0.20
2023-03-15T10:59:12.763Z,0.40
2023-03-15T11:01:41.237Z,0.40
2023-03-15T11:04:16.239Z,0.60
2023-03-15T11:06:47.562Z,0.80
2023-03-15T11:09:17.227Z,0.70
2023-03-15T11:11:57.979Z,0.90
2023-03-15T11:14:26.208Z,0.90
2023-03-15T11:16:57.682Z,0.90
2023-03-15T11:19:29.016Z,0.70
2023-03-15T11:21:59.865Z,0.80
2023-03-15T11:24:29.910Z,1.27
2023-03-15T11:27:02.115Z,1.30
2023-03-15T11:29:32.531Z,1.20
2023-03-15T11:32:02.392Z,1.20
2023-03-15T11:34:40.681Z,1.10
2023-03-15T11:37:16.443Z,0.70
2023-03-15T11:39:48.256Z,0.40
2023-03-15T11:42:23.486Z,0.30
2023-03-15T11:44:55.881Z,0.20
2023-03-15T11:47:36.034Z,0.20
2023-03-15T11:50:04.504Z,0.20
2023-03-15T11:52:34.125Z,0.20
2023-03-15T11:55:03.655Z,0.20
2023-03-15T11:57:41.844Z,0.20
2023-03-15T12:00:45.438Z,0.20
2023-03-15T12:03:35.597Z,0.20
2023-03-15T12:06:37.627Z,0.30
2023-03-15T12:09:38.636Z,0.30
2023-03-15T12:12:38.709Z,0.40
2023-03-15T12:15:16.601Z,0.52
2023-03-15T12:17:46.234Z,0.70
2023-03-15T12:20:20.370Z,0.70
2023-03-15T12:22:51.560Z,0.60
2023-03-15T12:25:22.250Z,0.70
2023-03-15T12:27:53.752Z,0.68
2023-03-15T12:30:24.423Z,0.60
2023-03-15T12:32:54.531Z,0.90
2023-03-15T12:35:24.512Z,0.80
2023-03-15T12:37:53.550Z,1.20
2023-03-15T12:40:40.946Z,0.93
2023-03-15T12:43:13.860Z,1.20
2023-03-15T12:45:46.639Z,1.00
2023-03-15T12:48:26.124Z,1.00
2023-03-15T12:50:56.743Z,1.38
2023-03-15T12:53:38.820Z,1.40
2023-03-15T12:56:27.124Z,1.50
2023-03-15T12:59:02.166Z,1.80
2023-03-15T13:01:30.414Z,1.67
2023-03-15T13:03:59.793Z,1.40
2023-03-15T13:06:37.743Z,1.52
2023-03-15T13:09:15.794Z,1.50
2023-03-15T13:11:46.764Z,1.42
2023-03-15T13:14:41.762Z,1.50
2023-03-15T13:17:28.618Z,1.60
2023-03-15T13:20:13.889Z,1.70
2023-03-15T13:22:55.389Z,1.63
2023-03-15T13:25:27.389Z,1.80
2023-03-15T13:28:04.417Z,1.80
2023-03-15T13:30:40.118Z,1.70
2023-03-15T13:33:25.142Z,1.60
2023-03-15T13:36:06.017Z,1.90
2023-03-15T13:38:48.199Z,1.80
2023-03-15T13:41:22.010Z,1.80
2023-03-15T13:44:00.122Z,1.80
2023-03-15T13:46:47.560Z,7.60
2023-03-15T13:49:19.190Z,7.32
2023-03-15T13:51:54.526Z,7.40
2023-03-15T13:54:28.090Z,6.57
2023-03-15T13:57:03.771Z,5.63
2023-03-15T13:59:34.471Z,10.25
2023-03-15T14:02:06.669Z,6.68
2023-03-15T14:04:37.672Z,4.72
2023-03-15T14:07:23.539Z,6.80
2023-03-15T14:10:10.974Z,7.85
2023-03-15T14:12:42.648Z,6.35
2023-03-15T14:15:18.842Z,5.68
2023-03-15T14:18:02.756Z,7.50
2023-03-15T14:20:56.032Z,7.30
2023-03-15T14:23:48.368Z,7.28
2023-03-15T14:26:20.276Z,6.03
2023-03-15T14:29:06.633Z,8.93
2023-03-15T14:32:20.320Z,8.30
2023-03-15T14:34:54.124Z,3.22
2023-03-15T14:37:38.782Z,7.85
2023-03-15T14:40:18.485Z,6.32
2023-03-15T14:42:51.486Z,7.45
2023-03-15T14:45:23.627Z,4.10
2023-03-15T14:47:57.712Z,9.27
2023-03-15T14:50:30.278Z,9.07
2023-03-15T14:52:59.808Z,4.55
2023-03-15T14:55:33.469Z,3.30
2023-03-15T14:58:02.114Z,5.88
2023-03-15T15:00:31.463Z,6.38
2023-03-15T15:03:00.300Z,4.00
2023-03-15T15:05:31.135Z,6.80
2023-03-15T15:08:04.892Z,6.72
2023-03-15T15:10:34.980Z,21.35
2023-03-15T15:13:06.936Z,6.18
2023-03-15T15:15:51.843Z,6.00
2023-03-15T15:18:24.366Z,4.38
2023-03-15T15:20:56.315Z,5.03
2023-03-15T15:23:26.452Z,5.45
2023-03-15T15:25:56.229Z,3.45
2023-03-15T15:28:34.893Z,5.38
2023-03-15T15:31:05.538Z,4.43
2023-03-15T15:33:34.208Z,4.80
2023-03-15T15:36:04.668Z,6.25
2023-03-15T15:38:38.408Z,6.50
2023-03-15T15:41:07.700Z,7.32
2023-03-15T15:43:35.812Z,4.63
2023-03-15T15:46:04.513Z,5.97
2023-03-15T15:48:32.554Z,7.18
2023-03-15T15:51:01.302Z,7.07
2023-03-15T15:53:33.511Z,7.15
2023-03-15T15:56:02.041Z,8.73
2023-03-15T15:58:29.979Z,6.13
2023-03-15T16:00:58.025Z,6.28
2023-03-15T16:03:26.322Z,7.63
2023-03-15T16:05:54.550Z,4.88
2023-03-15T16:08:23.896Z,7.40
2023-03-15T16:10:53.249Z,5.00
2023-03-15T16:13:21.514Z,6.03
2023-03-15T16:15:49.576Z,5.43
2023-03-15T16:18:17.606Z,5.38
2023-03-15T16:20:45.465Z,4.30
2023-03-15T16:23:20.343Z,6.90
2023-03-15T16:25:49.737Z,6.18
2023-03-15T16:28:19.606Z,8.57
2023-03-15T16:30:47.817Z,7.05
2023-03-15T16:33:17.887Z,7.38
2023-03-15T16:35:50.110Z,4.75
2023-03-15T16:38:24.682Z,5.05
2023-03-15T16:40:53.964Z,4.90
2023-03-15T16:43:26.761Z,5.13
2023-03-15T16:45:54.839Z,7.32
2023-03-15T16:48:23.367Z,8.48
2023-03-15T16:50:52.900Z,5.13
2023-03-15T16:53:21.232Z,4.20
2023-03-15T16:55:49.266Z,11.45
2023-03-15T16:58:19.091Z,7.82
2023-03-15T17:00:48.729Z,4.47
2023-03-15T17:03:18.034Z,9.02
2023-03-15T17:05:48.603Z,4.22
2023-03-15T17:08:19.356Z,5.18
2023-03-15T17:10:47.916Z,6.30
2023-03-15T17:13:17.497Z,3.25
2023-03-15T17:15:45.626Z,9.80
2023-03-15T17:18:18.489Z,6.65
2023-03-15T17:20:47.205Z,6.82
2023-03-15T17:23:15.425Z,8.18
2023-03-15T17:25:43.958Z,5.30
2023-03-15T17:28:12.973Z,4.78
2023-03-15T17:30:41.307Z,8.63
2023-03-15T17:33:09.740Z,3.85
2023-03-15T17:35:41.832Z,4.03
2023-03-15T17:38:17.077Z,4.88
2023-03-15T17:40:45.805Z,7.10
2023-03-15T17:43:15.361Z,6.60
2023-03-15T17:45:44.162Z,6.20
2023-03-15T17:48:12.313Z,10.18
2023-03-15T17:50:43.903Z,4.38
2023-03-15T17:53:17.523Z,6.18
2023-03-15T17:55:46.574Z,4.20
2023-03-15T17:58:18.963Z,3.80
2023-03-15T18:00:48.407Z,8.98
2023-03-15T18:03:17.322Z,3.72
2023-03-15T18:05:47.928Z,5.97
2023-03-15T18:08:18.246Z,3.88
2023-03-15T18:10:47.329Z,4.07
2023-03-15T18:13:19.659Z,7.18
2023-03-15T18:15:49.348Z,5.68
2023-03-15T18:18:17.692Z,4.85
2023-03-15T18:20:49.378Z,6.65
2023-03-15T18:23:18.327Z,6.35
2023-03-15T18:25:46.335Z,8.77
2023-03-15T18:28:14.576Z,5.25
2023-03-15T18:30:44.223Z,6.82
2023-03-15T18:33:12.514Z,10.23
2023-03-15T18:35:40.911Z,6.15
2023-03-15T18:38:10.603Z,4.50
2023-03-15T18:40:38.999Z,7.07
2023-03-15T18:43:07.207Z,4.25
2023-03-15T18:45:36.822Z,8.63
2023-03-15T18:48:05.180Z,7.47
2023-03-15T18:50:33.452Z,6.50
2023-03-15T18:53:03.998Z,7.07
2023-03-15T18:55:35.019Z,4.00
2023-03-15T18:58:03.245Z,5.82
2023-03-15T19:00:35.999Z,7.93
2023-03-15T19:03:05.054Z,6.50
2023-03-15T19:05:35.531Z,8.40
2023-03-15T19:08:03.660Z,10.48
2023-03-15T19:10:32.196Z,6.70
2023-03-15T19:13:04.033Z,7.95
2023-03-15T19:15:32.605Z,5.30
2023-03-15T19:18:01.307Z,6.18
2023-03-15T19:20:29.226Z,8.38
2023-03-15T19:22:57.996Z,6.90
2023-03-15T19:25:25.900Z,3.37
2023-03-15T19:27:54.525Z,5.50
2023-03-15T19:30:24.126Z,4.10
2023-03-15T19:32:52.295Z,6.13
2023-03-15T19:35:26.059Z,8.07
2023-03-15T19:37:54.441Z,4.87
2023-03-15T19:40:22.489Z,6.57
2023-03-15T19:42:51.622Z,9.60
2023-03-15T19:45:20.069Z,5.38
2023-03-15T19:47:49.423Z,4.43
2023-03-15T19:50:17.969Z,9.10
2023-03-15T19:52:48.876Z,7.47
2023-03-15T19:55:18.764Z,6.77
2023-03-15T19:57:47.007Z,6.47
2023-03-15T20:00:19.127Z,4.60
2023-03-15T20:02:50.100Z,6.73
2023-03-15T20:05:20.173Z,9.33
2023-03-15T20:07:53.806Z,10.00
2023-03-15T20:10:25.916Z,7.83
2023-03-15T20:12:58.907Z,8.80
2023-03-15T20:15:29.518Z,6.10
2023-03-15T20:17:59.490Z,9.63
2023-03-15T20:20:29.005Z,5.80
2023-03-15T20:22:58.949Z,7.27
2023-03-15T20:25:26.957Z,5.00
2023-03-15T20:27:55.591Z,4.80
2023-03-15T20:30:24.442Z,5.23
2023-03-15T20:32:53.690Z,4.13
2023-03-15T20:35:25.047Z,8.33
2023-03-15T20:37:53.616Z,9.90
2023-03-15T20:40:23.408Z,9.83
2023-03-15T20:42:51.821Z,8.60
2023-03-15T20:45:23.352Z,9.50
2023-03-15T20:47:51.479Z,10.10
2023-03-15T20:50:20.347Z,9.93
2023-03-15T20:52:50.941Z,10.30
2023-03-15T20:55:19.603Z,8.23
2023-03-15T20:57:47.421Z,8.40
2023-03-15T21:00:19.652Z,6.37
2023-03-15T21:02:48.077Z,6.23
2023-03-15T21:05:16.878Z,7.43
2023-03-15T21:07:45.187Z,5.70
2023-03-15T21:10:14.904Z,6.30
2023-03-15T21:12:44.007Z,6.77
2023-03-15T21:15:17.605Z,13.47
2023-03-15T21:17:46.015Z,8.77
2023-03-15T21:20:15.542Z,6.83
2023-03-15T21:22:44.236Z,7.17
2023-03-15T21:25:14.339Z,8.30
2023-03-15T21:27:42.574Z,4.67
2023-03-15T21:30:14.034Z,5.37
2023-03-15T21:32:42.830Z,7.83
2023-03-15T21:35:11.144Z,7.27
2023-03-15T21:37:40.291Z,6.50
2023-03-15T21:40:09.282Z,7.57
2023-03-15T21:42:40.283Z,6.87
2023-03-15T21:45:09.643Z,7.23
2023-03-15T21:47:37.843Z,9.60
2023-03-15T21:50:06.624Z,13.43
2023-03-15T21:52:34.633Z,11.50
2023-03-15T21:55:02.549Z,9.17
2023-03-15T21:57:33.725Z,13.90
2023-03-15T22:00:05.754Z,8.53
2023-03-15T22:02:40.091Z,13.03
2023-03-15T22:05:08.210Z,8.37
2023-03-15T22:07:36.334Z,9.87
2023-03-15T22:10:04.914Z,9.60
2023-03-15T22:12:32.821Z,9.43
2023-03-15T22:15:05.743Z,7.90
2023-03-15T22:17:35.373Z,8.33
2023-03-15T22:20:09.041Z,11.47
2023-03-15T22:22:38.184Z,9.07
2023-03-15T22:25:06.818Z,10.87
2023-03-15T22:27:35.258Z,11.97
2023-03-15T22:30:03.374Z,10.83
2023-03-15T22:32:31.637Z,9.97
2023-03-15T22:35:01.368Z,7.97
2023-03-15T22:37:29.483Z,8.47
2023-03-15T22:39:57.554Z,12.93
2023-03-15T22:42:25.529Z,12.00
2023-03-15T22:44:53.857Z,8.00
2023-03-15T22:47:22.268Z,7.40
2023-03-15T22:49:52.178Z,9.47
2023-03-15T22:52:21.458Z,6.40
2023-03-15T22:54:49.656Z,8.03
2023-03-15T22:57:17.809Z,10.47
2023-03-15T22:59:45.647Z,16.97
2023-03-15T23:02:13.474Z,9.03
2023-03-15T23:04:41.561Z,7.87
2023-03-15T23:07:10.119Z,9.33
2023-03-15T23:09:40.078Z,12.77
2023-03-15T23:12:08.798Z,12.60
2023-03-15T23:14:37.077Z,9.53
2023-03-15T23:17:05.918Z,12.87
2023-03-15T23:19:34.983Z,8.03
2023-03-15T23:22:03.868Z,13.20
2023-03-15T23:24:33.903Z,8.53
2023-03-15T23:27:04.468Z,10.03
2023-03-15T23:29:34.133Z,7.00
2023-03-15T23:32:09.509Z,11.87
2023-03-15T23:34:42.538Z,12.07
2023-03-15T23:37:11.008Z,13.37
2023-03-15T23:39:39.125Z,9.27
2023-03-15T23:42:08.705Z,9.03
2023-03-15T23:44:36.983Z,12.97
2023-03-15T23:47:06.519Z,12.27
2023-03-15T23:49:35.390Z,7.23
2023-03-15T23:52:05.896Z,9.87
2023-03-15T23:54:39.737Z,9.10
2023-03-15T23:57:09.987Z,8.97
2023-03-15T23:59:38.614Z,8.33
